Fort Campbell, Kentucky
Current Conditions -  °F | °C
As of 2:15 PM on Thursday 29 Jan 2015 (Local Time) from KHOP Reporting Station
Overcast Overcast  
Wind Chill: 41°   Ceiling: 2700
Heat Index: 48°   Visibility: 8mi
Dew Point: 37°   Wind: 21mph
Humidity: 66%   Direction: 310°NW
Pressure: 30.08"   Gusts: 25mph
Location:  36.65°N, 87.46°W
Report Text: KHOP 292015Z AUTO 31018G22KT 8SM BKN027 BKN035 OVC043 09/03 A3008 RMK AO2 CIG 027V038 BKN027 V SCT
Loading
Personal Weather Stations






























Interactive Weather Map New forecast layout! Learn more

10-Day Weather Forecast

Advertisements
Track Severe Weather on mobile